Terminal Aerodrome Forecast
Issued by NWS Topeka, KS

Home | Current Version | Previous Version | Text Only | Print | Product List | Glossary On
Versions: 1 2 3 4 5 6 7 8 9 10 11 12 13 14 15 16 17 18 19 20 21 22 23
000
FTUS43 KTOP 231700
TAFTOP
TAF
KTOP 231720Z 2318/2418 19007KT 3SM -RA BR OVC015
     FM231900 28010KT 3SM -SHRA BR BKN007 OVC015
     FM232100 32019G27KT 3SM -RA BR OVC020
     FM240400 31016G23KT P6SM BKN035=

USA.gov is the U.S. government's official web portal to all federal, state and local government web resources and services.